Time;durP1;ratioP1;P1;durP2;ratioP2;P2;SDS_P1;SDS_P2;PMS_P1;PMS_P2;Temp;Humidity;BMP_temperature;BMP_pressure;BME280_temperature;BME280_humidity;BME280_pressure;Samples;Min_cycle;Max_cycle;Signal;HPM_P1;HPM_P2
2023/08/30 00:00:35;;;;;;;3.63;2.00;;;;;;;20.70;67.58;99711.59;5091220;28;20179;-60
2023/08/30 00:03:00;;;;;;;4.67;2.10;;;;;;;20.70;67.92;99714.47;5108647;28;20174;-59
2023/08/30 00:05:27;;;;;;;3.20;2.20;;;;;;;20.69;67.89;99707.09;5105912;28;20613;-60
2023/08/30 00:07:56;;;;;;;3.50;2.10;;;;;;;20.68;67.97;99708.28;5109051;28;20189;-60
2023/08/30 00:10:21;;;;;;;3.57;1.97;;;;;;;20.67;67.52;99700.13;5106989;28;20515;-60
2023/08/30 00:12:47;;;;;;;2.80;1.93;;;;;;;20.67;67.31;99698.06;5106695;28;20411;-60
2023/08/30 00:15:13;;;;;;;4.40;2.77;;;;;;;20.67;67.81;99695.19;5108953;28;20166;-60
2023/08/30 00:17:38;;;;;;;4.33;2.33;;;;;;;20.66;67.60;99692.72;5098406;28;20174;-59
2023/08/30 00:20:05;;;;;;;3.20;2.07;;;;;;;20.65;67.39;99700.53;5088632;28;20470;-59
2023/08/30 00:22:31;;;;;;;4.57;2.10;;;;;;;20.64;67.90;99700.94;5088212;28;20708;-60
2023/08/30 00:24:56;;;;;;;4.60;2.53;;;;;;;20.62;67.31;99692.72;5088922;28;20451;-59
2023/08/30 00:27:23;;;;;;;5.87;2.33;;;;;;;20.62;67.34;99701.34;5056240;28;20938;-59
2023/08/30 00:29:48;;;;;;;3.10;2.13;;;;;;;20.62;66.99;99694.78;5105314;28;20431;-59
2023/08/30 00:32:13;;;;;;;5.33;2.00;;;;;;;20.61;67.60;99702.56;5090522;28;20201;-59
2023/08/30 00:34:39;;;;;;;3.40;2.10;;;;;;;20.60;67.53;99692.34;5107009;28;20173;-60
2023/08/30 00:37:04;;;;;;;3.67;2.10;;;;;;;20.61;67.60;99701.75;5086958;28;20186;-60
2023/08/30 00:39:30;;;;;;;6.33;2.33;;;;;;;20.61;67.13;99684.53;5107378;28;20169;-60
2023/08/30 00:41:55;;;;;;;4.50;2.13;;;;;;;20.62;67.40;99689.88;5107566;28;20724;-60
2023/08/30 00:44:21;;;;;;;5.03;2.00;;;;;;;20.61;67.62;99685.38;5117959;28;20685;-59
2023/08/30 00:46:46;;;;;;;4.80;2.17;;;;;;;20.62;67.50;99686.19;5102358;28;20193;-60
2023/08/30 00:49:12;;;;;;;3.60;2.03;;;;;;;20.61;67.29;99690.25;5088081;28;20201;-60
2023/08/30 00:51:37;;;;;;;3.93;2.33;;;;;;;20.59;67.22;99693.56;5104921;28;20196;-60
2023/08/30 00:54:02;;;;;;;3.90;2.27;;;;;;;20.58;67.21;99691.91;5112576;28;20593;-60
2023/08/30 00:56:28;;;;;;;4.37;2.30;;;;;;;20.58;66.93;99691.09;5099670;28;20569;-60
2023/08/30 00:58:53;;;;;;;3.90;2.50;;;;;;;20.57;67.16;99696.00;5099606;28;20186;-60
2023/08/30 01:01:19;;;;;;;10.00;2.30;;;;;;;20.57;67.07;99690.28;5065206;28;20197;-60
2023/08/30 01:03:44;;;;;;;6.23;2.47;;;;;;;20.59;66.44;99692.75;5076304;28;20235;-60
2023/08/30 01:06:10;;;;;;;3.23;2.10;;;;;;;20.57;66.65;99692.34;5111622;28;20508;-59
2023/08/30 01:08:35;;;;;;;3.80;2.00;;;;;;;20.56;67.18;99696.41;5110937;28;20755;-60
2023/08/30 01:11:13;;;;;;;4.90;2.13;;;;;;;20.55;66.89;99689.03;5086955;28;20184;-60
2023/08/30 01:13:42;;;;;;;2.50;1.70;;;;;;;20.52;66.81;99693.53;5094041;28;20392;-59
2023/08/30 01:16:07;;;;;;;3.67;2.47;;;;;;;20.52;66.88;99684.16;5070430;28;20497;-60
2023/08/30 01:18:34;;;;;;;3.60;2.37;;;;;;;20.52;66.82;99676.34;5091545;28;20892;-60
2023/08/30 01:21:00;;;;;;;8.30;2.53;;;;;;;20.53;66.99;99682.91;5090583;27;20197;-60
2023/08/30 01:23:29;;;;;;;4.77;2.27;;;;;;;20.51;66.78;99674.72;5114059;27;20825;-59
2023/08/30 01:26:06;;;;;;;5.90;2.00;;;;;;;20.52;66.41;99684.16;5108780;28;20459;-60
2023/08/30 01:28:33;;;;;;;5.40;2.27;;;;;;;20.51;66.61;99691.09;5111433;28;20431;-60
2023/08/30 01:30:58;;;;;;;3.93;2.47;;;;;;;20.49;66.44;99682.09;5088619;28;20801;-60
2023/08/30 01:33:24;;;;;;;3.50;2.10;;;;;;;20.50;66.68;99681.69;5089698;28;20485;-60
2023/08/30 01:35:49;;;;;;;4.43;2.30;;;;;;;20.51;66.61;99680.44;5111744;28;20909;-59
2023/08/30 01:38:15;;;;;;;4.63;2.20;;;;;;;20.50;66.83;99677.97;5077710;28;20681;-58
2023/08/30 01:40:42;;;;;;;3.43;1.80;;;;;;;20.48;66.85;99675.53;5073308;28;20231;-60
2023/08/30 01:43:07;;;;;;;3.53;1.97;;;;;;;20.49;66.89;99673.47;5059240;28;20193;-60
2023/08/30 01:45:38;;;;;;;2.80;1.90;;;;;;;20.48;66.60;99672.69;5108271;28;20463;-60
2023/08/30 01:48:04;;;;;;;3.63;2.70;;;;;;;20.47;66.68;99664.47;5093012;28;20575;-59
2023/08/30 01:50:30;;;;;;;3.03;1.90;;;;;;;20.48;66.69;99668.97;5111420;28;20455;-59
2023/08/30 01:52:56;;;;;;;4.40;2.20;;;;;;;20.47;66.59;99662.41;5082170;28;20835;-59
2023/08/30 01:55:22;;;;;;;6.73;3.37;;;;;;;20.48;67.02;99666.94;5087950;28;20174;-60
2023/08/30 01:57:47;;;;;;;4.33;2.20;;;;;;;20.47;66.94;99668.16;5089350;28;20783;-59
2023/08/30 02:00:13;;;;;;;4.33;2.17;;;;;;;20.48;66.57;99671.84;5075767;28;20203;-60
2023/08/30 02:02:38;;;;;;;7.30;2.20;;;;;;;20.47;66.74;99676.75;5091533;28;20254;-60
2023/08/30 02:05:04;;;;;;;4.00;2.00;;;;;;;20.47;67.11;99673.09;5111163;28;20239;-60
2023/08/30 02:07:51;;;;;;;5.30;2.50;;;;;;;20.47;66.61;99673.88;5104020;28;20226;-59
2023/08/30 02:10:33;;;;;;;4.70;2.40;;;;;;;20.48;66.68;99664.06;5090952;28;20178;-61
2023/08/30 02:12:59;;;;;;;3.40;2.33;;;;;;;20.48;66.71;99672.69;5078252;28;20522;-60
2023/08/30 02:15:24;;;;;;;4.00;3.00;;;;;;;20.48;66.97;99675.53;5092828;28;20937;-60
2023/08/30 02:17:50;;;;;;;4.27;2.47;;;;;;;20.47;66.92;99675.94;5111444;28;20839;-60
2023/08/30 02:20:15;;;;;;;3.37;2.10;;;;;;;20.46;67.06;99665.72;5089705;28;20178;-59
2023/08/30 02:22:41;;;;;;;5.13;2.87;;;;;;;20.47;66.73;99670.22;5092973;28;20233;-59
2023/08/30 02:25:07;;;;;;;4.33;2.53;;;;;;;20.46;67.15;99666.50;5109941;28;20283;-59
2023/08/30 02:27:33;;;;;;;4.40;2.33;;;;;;;20.45;67.02;99667.75;5108665;28;20181;-60
2023/08/30 02:29:59;;;;;;;5.23;2.50;;;;;;;20.46;67.14;99660.78;5074190;28;21208;-59
2023/08/30 02:32:24;;;;;;;6.13;2.77;;;;;;;20.48;67.43;99657.50;5097400;28;21091;-59
2023/08/30 02:34:50;;;;;;;3.57;2.10;;;;;;;20.48;67.19;99664.06;5096598;28;20266;-60
2023/08/30 02:37:16;;;;;;;4.50;2.27;;;;;;;20.47;67.43;99656.69;5093034;28;20332;-60
2023/08/30 02:39:41;;;;;;;8.53;2.33;;;;;;;20.48;66.91;99664.06;5074551;28;20466;-60
2023/08/30 02:42:07;;;;;;;3.90;2.20;;;;;;;20.47;67.02;99662.41;5090539;28;20165;-60
2023/08/30 02:44:32;;;;;;;3.70;2.17;;;;;;;20.49;67.30;99670.63;5118271;27;20212;-59
2023/08/30 02:46:58;;;;;;;2.40;1.70;;;;;;;20.48;67.25;99666.13;5108681;28;20703;-60
2023/08/30 02:49:23;;;;;;;2.60;2.13;;;;;;;20.48;67.45;99658.34;5110483;28;20637;-60
2023/08/30 02:51:49;;;;;;;4.10;2.23;;;;;;;20.47;67.32;99662.41;5110408;28;20578;-60
2023/08/30 02:54:14;;;;;;;3.17;2.03;;;;;;;20.47;67.23;99668.16;5110108;28;20170;-59
2023/08/30 02:56:43;;;;;;;3.27;2.03;;;;;;;20.48;67.43;99663.25;5125779;27;20184;-59
2023/08/30 02:59:09;;;;;;;6.20;2.57;;;;;;;20.49;66.98;99671.44;5112652;27;20640;-59
2023/08/30 03:01:35;;;;;;;5.00;2.60;;;;;;;20.49;67.26;99667.75;5107944;27;20456;-59
2023/08/30 03:04:00;;;;;;;4.60;2.33;;;;;;;20.49;66.90;99659.16;5086401;28;20218;-60
2023/08/30 03:06:26;;;;;;;3.77;2.73;;;;;;;20.49;67.61;99668.56;5082349;28;20236;-60
2023/08/30 03:08:53;;;;;;;6.10;2.97;;;;;;;20.47;67.18;99656.69;5109488;27;20996;-59
2023/08/30 03:11:19;;;;;;;3.23;2.33;;;;;;;20.48;67.52;99663.25;5091631;28;20190;-60
2023/08/30 03:13:44;;;;;;;3.97;2.70;;;;;;;20.47;67.37;99656.69;5105281;28;20447;-60
2023/08/30 03:16:13;;;;;;;3.30;2.03;;;;;;;20.47;67.12;99656.69;5109921;28;20177;-60
2023/08/30 03:18:39;;;;;;;3.40;2.13;;;;;;;20.45;67.49;99664.88;5105006;27;20207;-60
2023/08/30 03:21:04;;;;;;;3.47;2.03;;;;;;;20.46;67.30;99660.78;5109024;28;20427;-60
2023/08/30 03:23:31;;;;;;;5.70;2.20;;;;;;;20.45;67.24;99659.16;5106775;28;20158;-60
2023/08/30 03:25:57;;;;;;;5.47;2.90;;;;;;;20.45;67.42;99658.31;5093855;28;20267;-59
2023/08/30 03:28:23;;;;;;;5.00;2.40;;;;;;;20.44;67.29;99650.94;5109690;27;20447;-59
2023/08/30 03:30:48;;;;;;;5.83;2.60;;;;;;;20.45;67.60;99652.59;5116102;27;20176;-60
2023/08/30 03:33:14;;;;;;;3.77;2.33;;;;;;;20.43;67.38;99644.41;5108912;27;20182;-59
2023/08/30 03:35:39;;;;;;;3.60;2.30;;;;;;;20.46;67.40;99646.44;5100538;28;20167;-59
2023/08/30 03:38:04;;;;;;;3.73;1.90;;;;;;;20.45;66.71;99644.81;5087916;28;21005;-60
2023/08/30 03:40:30;;;;;;;7.17;2.60;;;;;;;20.46;67.39;99651.38;5084445;28;20182;-59
2023/08/30 03:42:56;;;;;;;3.00;2.00;;;;;;;20.46;66.91;99645.66;5103196;28;20186;-60
2023/08/30 03:45:21;;;;;;;5.60;2.57;;;;;;;20.45;67.17;99639.06;5095765;28;20214;-60
2023/08/30 03:47:47;;;;;;;4.37;2.23;;;;;;;20.44;67.21;99640.31;5109544;28;20162;-59
2023/08/30 03:50:13;;;;;;;4.30;2.20;;;;;;;20.44;67.41;99646.03;5111014;27;20203;-60
2023/08/30 03:52:38;;;;;;;4.10;2.40;;;;;;;20.44;67.22;99643.19;5106606;28;20186;-59
2023/08/30 03:55:04;;;;;;;6.57;2.50;;;;;;;20.44;67.24;99643.19;5108886;28;20173;-60
2023/08/30 03:57:29;;;;;;;4.20;2.30;;;;;;;20.43;67.22;99647.28;5109461;28;20170;-59
2023/08/30 03:59:55;;;;;;;5.93;2.00;;;;;;;20.44;66.91;99642.34;5107007;28;20186;-59
2023/08/30 04:02:20;;;;;;;3.80;2.37;;;;;;;20.43;67.02;99640.72;5102429;28;20232;-60
2023/08/30 04:04:49;;;;;;;3.87;1.90;;;;;;;20.43;66.98;99637.84;5105183;28;20193;-60
2023/08/30 04:07:15;;;;;;;4.23;2.03;;;;;;;20.43;67.25;99643.59;5104821;28;20182;-60
2023/08/30 04:09:40;;;;;;;4.03;2.10;;;;;;;20.44;66.94;99650.94;5088747;28;20514;-60
2023/08/30 04:12:06;;;;;;;4.10;2.37;;;;;;;20.43;67.18;99644.41;5088588;28;20413;-60
2023/08/30 04:14:31;;;;;;;3.60;2.13;;;;;;;20.43;67.32;99643.59;5105197;28;20963;-60
2023/08/30 04:16:57;;;;;;;4.50;2.57;;;;;;;20.42;67.28;99647.69;5108476;28;20185;-60
2023/08/30 04:19:22;;;;;;;5.43;2.27;;;;;;;20.41;66.99;99643.19;5099248;28;20221;-59
2023/08/30 04:21:48;;;;;;;3.27;1.90;;;;;;;20.40;67.45;99653.81;5087276;28;20931;-59
2023/08/30 04:24:14;;;;;;;3.47;2.00;;;;;;;20.40;67.09;99650.97;5086843;28;20187;-59
2023/08/30 04:26:40;;;;;;;4.10;2.20;;;;;;;20.40;66.96;99650.97;5103400;28;20264;-59
2023/08/30 04:29:05;;;;;;;4.20;2.23;;;;;;;20.40;66.56;99645.22;5089366;28;20534;-60
2023/08/30 04:31:31;;;;;;;3.17;2.17;;;;;;;20.39;66.89;99649.31;5104274;28;20181;-60
2023/08/30 04:33:56;;;;;;;2.70;2.10;;;;;;;20.39;66.72;99637.84;5098127;28;20183;-60
2023/08/30 04:36:22;;;;;;;3.33;2.23;;;;;;;20.38;66.93;99646.84;5100076;28;20181;-59
2023/08/30 04:38:47;;;;;;;7.73;2.30;;;;;;;20.38;67.31;99646.84;5105204;28;20196;-59
2023/08/30 04:41:13;;;;;;;6.20;2.17;;;;;;;20.38;66.77;99655.47;5108289;28;20867;-60
2023/08/30 04:43:38;;;;;;;4.37;2.50;;;;;;;20.37;67.10;99654.63;5097231;28;20182;-59
2023/08/30 04:46:04;;;;;;;9.30;2.70;;;;;;;20.37;67.20;99656.69;5095517;28;20205;-60
2023/08/30 04:48:29;;;;;;;2.93;2.07;;;;;;;20.36;66.82;99653.00;5097120;28;20186;-59
2023/08/30 04:50:59;;;;;;;4.20;2.63;;;;;;;20.35;66.79;99647.66;5078243;28;20201;-60
2023/08/30 04:53:25;;;;;;;3.63;2.27;;;;;;;20.35;67.00;99651.38;5105595;28;20253;-59
2023/08/30 04:55:50;;;;;;;4.13;1.97;;;;;;;20.35;66.94;99645.63;5103644;28;20442;-59
2023/08/30 04:58:16;;;;;;;2.90;2.10;;;;;;;20.36;67.15;99655.88;5126542;28;20180;-60
2023/08/30 05:00:41;;;;;;;6.70;2.10;;;;;;;20.36;67.15;99655.88;5104340;28;20186;-60
2023/08/30 05:03:07;;;;;;;2.50;1.70;;;;;;;20.37;67.06;99663.22;5089486;28;20660;-59
2023/08/30 05:05:32;;;;;;;4.40;2.23;;;;;;;20.37;66.71;99659.56;5086384;28;20205;-59
2023/08/30 05:07:58;;;;;;;3.40;2.13;;;;;;;20.36;66.81;99653.00;5106507;28;20265;-60
2023/08/30 05:10:23;;;;;;;4.10;2.17;;;;;;;20.36;67.06;99658.72;5106072;28;20585;-60
2023/08/30 05:12:51;;;;;;;3.93;2.20;;;;;;;20.37;66.86;99654.63;5090866;28;20197;-60
2023/08/30 05:15:17;;;;;;;3.70;2.20;;;;;;;20.37;67.06;99657.50;5107028;28;20220;-60
2023/08/30 05:17:43;;;;;;;3.60;2.10;;;;;;;20.37;66.56;99657.50;5106793;28;20499;-59
2023/08/30 05:20:09;;;;;;;3.57;2.33;;;;;;;20.36;66.58;99653.00;5103394;28;20564;-59
2023/08/30 05:22:34;;;;;;;2.50;1.93;;;;;;;20.37;66.77;99654.63;5107153;28;20249;-59
2023/08/30 05:25:01;;;;;;;4.50;1.80;;;;;;;20.36;66.75;99655.88;5103431;28;20463;-59
2023/08/30 05:27:27;;;;;;;6.20;2.00;;;;;;;20.15;67.27;99657.88;5107138;28;20189;-60
2023/08/30 05:29:52;;;;;;;3.43;2.17;;;;;;;20.09;67.57;99662.38;5092207;28;20428;-59
2023/08/30 05:32:18;;;;;;;4.60;2.83;;;;;;;20.21;66.75;99667.75;5107521;28;20550;-60
2023/08/30 05:34:44;;;;;;;5.70;2.00;;;;;;;20.22;66.84;99658.72;5103554;28;20269;-59
2023/08/30 05:37:09;;;;;;;5.73;2.43;;;;;;;20.06;67.39;99663.97;5108486;28;20166;-59
2023/08/30 05:39:35;;;;;;;4.73;2.50;;;;;;;20.14;67.10;99654.22;5109555;28;20182;-59
2023/08/30 05:42:00;;;;;;;4.40;2.80;;;;;;;20.17;66.73;99658.31;5098388;28;20269;-59
2023/08/30 05:44:26;;;;;;;5.13;3.17;;;;;;;20.15;66.96;99655.84;5089670;28;20197;-59
2023/08/30 05:46:51;;;;;;;4.00;2.57;;;;;;;20.14;66.74;99659.94;5109526;28;20664;-59
2023/08/30 05:49:17;;;;;;;5.07;2.80;;;;;;;20.02;67.02;99654.56;5081097;28;20209;-59
2023/08/30 05:51:42;;;;;;;3.30;2.50;;;;;;;19.99;67.02;99655.38;5100426;28;20182;-59
2023/08/30 05:54:07;;;;;;;4.73;2.60;;;;;;;20.03;66.98;99658.25;5107200;27;20185;-59
2023/08/30 05:56:33;;;;;;;5.63;2.93;;;;;;;20.01;66.84;99661.53;5110394;28;20648;-60
2023/08/30 05:58:58;;;;;;;3.50;2.30;;;;;;;19.99;67.00;99661.13;5105726;27;20556;-59
2023/08/30 06:01:24;;;;;;;3.80;2.80;;;;;;;19.98;67.09;99662.34;5097748;28;20715;-60
2023/08/30 06:03:50;;;;;;;4.07;2.47;;;;;;;19.95;67.24;99663.16;5098791;28;20166;-59
2023/08/30 06:06:16;;;;;;;5.10;2.90;;;;;;;19.81;67.36;99651.66;5100710;28;20944;-59
2023/08/30 06:08:41;;;;;;;6.90;2.73;;;;;;;19.89;66.93;99661.91;5100316;28;20300;-59
2023/08/30 06:11:07;;;;;;;11.20;3.13;;;;;;;19.93;67.19;99653.31;5102503;28;20178;-59
2023/08/30 06:13:32;;;;;;;4.00;2.50;;;;;;;19.98;66.82;99647.19;5091606;28;20177;-60
2023/08/30 06:15:58;;;;;;;6.33;2.70;;;;;;;19.34;68.77;99645.34;5093705;28;20194;-61
2023/08/30 06:18:23;;;;;;;3.23;2.47;;;;;;;19.75;68.10;99646.72;5110612;27;20196;-62
2023/08/30 06:20:49;;;;;;;3.57;3.10;;;;;;;20.27;68.39;99652.56;5100770;27;20205;-59
2023/08/30 06:23:15;;;;;;;6.10;3.97;;;;;;;20.44;69.34;99648.91;5110613;28;20184;-60
2023/08/30 06:25:41;;;;;;;6.40;3.70;;;;;;;20.59;70.20;99649.72;5110377;28;20198;-59
2023/08/30 06:28:06;;;;;;;8.27;5.37;;;;;;;20.21;69.95;99656.28;5090032;28;20532;-60
2023/08/30 06:30:32;;;;;;;8.57;3.57;;;;;;;20.18;70.03;99657.91;5085558;28;20277;-59
2023/08/30 06:32:57;;;;;;;4.10;3.10;;;;;;;20.12;70.14;99650.91;5101450;28;20229;-59
2023/08/30 06:35:23;;;;;;;4.53;3.23;;;;;;;20.34;70.07;99657.50;5093968;28;20220;-59
2023/08/30 06:37:49;;;;;;;5.23;2.93;;;;;;;20.32;68.70;99660.78;5103922;28;20188;-60
2023/08/30 06:40:14;;;;;;;4.20;2.90;;;;;;;20.27;68.63;99663.25;5107229;28;20198;-60
2023/08/30 06:42:40;;;;;;;4.00;2.63;;;;;;;20.21;67.68;99662.81;5110560;28;20161;-60
2023/08/30 06:45:06;;;;;;;3.73;2.67;;;;;;;20.22;68.04;99661.56;5109754;28;20251;-60
2023/08/30 06:47:31;;;;;;;5.00;3.43;;;;;;;20.25;68.03;99660.78;5090965;28;20185;-61
2023/08/30 06:49:57;;;;;;;5.70;3.03;;;;;;;20.18;67.73;99660.78;5112139;27;20458;-60
2023/08/30 06:52:23;;;;;;;4.90;2.57;;;;;;;19.67;68.52;99659.41;5101839;28;20178;-59
2023/08/30 06:54:48;;;;;;;4.13;2.43;;;;;;;19.92;68.48;99657.41;5105296;28;20256;-60
2023/08/30 06:57:14;;;;;;;6.73;2.67;;;;;;;19.75;68.88;99656.16;5091003;28;20581;-61
2023/08/30 06:59:39;;;;;;;3.63;2.70;;;;;;;19.75;69.21;99653.28;5113538;27;20184;-62
2023/08/30 07:02:05;;;;;;;4.77;3.10;;;;;;;19.47;70.02;99660.97;5120190;27;20727;-59
2023/08/30 07:04:30;;;;;;;4.13;2.97;;;;;;;19.53;69.95;99647.88;5103501;28;20994;-59
2023/08/30 07:06:56;;;;;;;3.40;2.77;;;;;;;19.38;70.55;99657.63;5109802;28;20212;-59
2023/08/30 07:09:28;;;;;;;4.40;2.90;;;;;;;19.17;71.31;99654.66;5088444;28;20205;-59
2023/08/30 07:11:53;;;;;;;4.40;2.50;;;;;;;19.48;70.65;99656.88;5107390;28;20170;-59
2023/08/30 07:14:20;;;;;;;4.63;2.47;;;;;;;19.43;70.10;99651.53;5108494;28;20439;-60
2023/08/30 07:16:45;;;;;;;4.00;3.30;;;;;;;19.71;69.97;99640.97;5107386;28;20182;-60
2023/08/30 07:19:11;;;;;;;5.00;3.70;;;;;;;19.64;71.38;99643.84;5076347;28;20508;-59
2023/08/30 07:21:38;;;;;;;9.30;3.97;;;;;;;19.41;70.84;99640.47;5113644;27;20226;-60
2023/08/30 07:24:05;;;;;;;5.50;3.87;;;;;;;19.50;71.05;99642.97;5098083;28;20189;-60
2023/08/30 07:26:31;;;;;;;7.00;3.33;;;;;;;19.86;70.64;99642.66;5071111;28;20440;-60
2023/08/30 07:28:56;;;;;;;5.40;3.50;;;;;;;19.93;70.01;99642.69;5088630;28;20791;-60
2023/08/30 07:31:22;;;;;;;5.00;3.80;;;;;;;19.69;68.90;99642.63;5071061;28;20190;-60
2023/08/30 07:33:48;;;;;;;6.40;4.20;;;;;;;19.00;71.78;99639.03;5082429;28;20189;-59
2023/08/30 07:36:13;;;;;;;7.00;4.13;;;;;;;19.02;71.40;99638.63;5071268;28;20170;-61
2023/08/30 07:38:38;;;;;;;4.93;3.20;;;;;;;19.06;72.06;99636.63;5086810;28;20529;-60
2023/08/30 07:41:04;;;;;;;10.57;4.20;;;;;;;19.00;71.46;99638.19;5069395;28;20171;-59
2023/08/30 07:43:29;;;;;;;7.83;4.67;;;;;;;18.79;71.83;99640.94;5067825;28;20190;-61
2023/08/30 07:45:56;;;;;;;6.07;3.67;;;;;;;18.93;71.70;99633.28;5088102;28;20246;-59
2023/08/30 07:48:21;;;;;;;7.20;5.00;;;;;;;19.26;70.91;99635.91;5083386;28;20673;-60
2023/08/30 07:50:47;;;;;;;7.70;4.23;;;;;;;19.15;71.07;99640.75;5071784;28;20526;-60
2023/08/30 07:53:12;;;;;;;6.83;3.27;;;;;;;19.00;71.72;99644.75;5088305;28;20512;-59
2023/08/30 07:55:38;;;;;;;5.20;3.93;;;;;;;19.37;70.31;99642.50;5086019;28;20622;-59
2023/08/30 07:58:03;;;;;;;5.83;3.33;;;;;;;19.09;70.94;99642.34;5081226;28;20515;-59
2023/08/30 08:00:29;;;;;;;5.70;3.23;;;;;;;19.58;69.89;99628.28;5074220;28;20313;-60
2023/08/30 08:02:55;;;;;;;5.37;3.20;;;;;;;19.71;69.38;99629.53;5079456;28;20186;-59
2023/08/30 08:05:20;;;;;;;5.50;2.70;;;;;;;19.65;69.37;99631.16;5074522;28;20206;-60
2023/08/30 08:07:46;;;;;;;5.60;3.20;;;;;;;19.89;68.92;99630.41;5078024;28;20341;-60
2023/08/30 08:10:11;;;;;;;4.80;3.00;;;;;;;19.51;69.25;99630.31;5079259;28;20179;-58
2023/08/30 08:12:37;;;;;;;5.53;3.53;;;;;;;19.32;70.38;99634.28;5048295;28;20229;-59
2023/08/30 08:15:02;;;;;;;6.70;3.00;;;;;;;19.34;70.24;99631.88;5073388;28;20649;-58
2023/08/30 08:17:28;;;;;;;6.83;3.30;;;;;;;19.36;71.06;99629.41;5062206;28;20252;-60
2023/08/30 08:19:54;;;;;;;5.37;3.03;;;;;;;19.77;69.44;99644.28;5066323;28;20273;-58
2023/08/30 08:22:19;;;;;;;6.00;3.20;;;;;;;19.56;69.91;99639.31;5098479;28;20467;-58
2023/08/30 08:24:45;;;;;;;3.70;2.60;;;;;;;19.69;69.32;99643.44;5099059;28;20250;-58
2023/08/30 08:27:11;;;;;;;5.70;3.53;;;;;;;19.51;69.61;99642.56;5094225;28;20278;-59
2023/08/30 08:29:37;;;;;;;8.63;3.53;;;;;;;19.62;70.04;99643.41;5098002;28;20840;-60
2023/08/30 08:32:03;;;;;;;8.80;2.90;;;;;;;19.62;69.91;99654.88;5095773;28;20186;-59
2023/08/30 08:34:29;;;;;;;6.40;3.30;;;;;;;19.66;69.72;99644.25;5088358;28;20464;-58
2023/08/30 08:36:54;;;;;;;7.57;2.80;;;;;;;19.84;68.95;99656.59;5090070;28;20178;-58
2023/08/30 08:39:20;;;;;;;6.47;2.80;;;;;;;19.84;68.98;99662.31;5106674;28;20185;-58
2023/08/30 08:41:45;;;;;;;6.20;3.03;;;;;;;19.83;69.22;99660.69;5107937;28;20186;-58
2023/08/30 08:44:11;;;;;;;3.70;2.70;;;;;;;19.87;69.04;99658.63;5104996;28;20532;-58
2023/08/30 08:46:39;;;;;;;3.57;2.50;;;;;;;19.92;68.74;99658.22;5090138;28;20173;-59
2023/08/30 08:49:14;;;;;;;4.13;2.77;;;;;;;19.97;68.42;99663.56;5110791;28;20493;-59
2023/08/30 08:51:41;;;;;;;4.07;2.60;;;;;;;19.85;68.98;99663.13;5089734;28;20451;-58
2023/08/30 08:54:06;;;;;;;4.77;2.77;;;;;;;19.90;69.06;99659.84;5099830;28;20436;-59
2023/08/30 08:56:33;;;;;;;5.00;3.00;;;;;;;19.66;69.93;99664.28;5107336;28;20423;-59
2023/08/30 08:58:59;;;;;;;5.73;2.97;;;;;;;19.81;69.35;99662.31;5107404;28;20259;-59
2023/08/30 09:01:24;;;;;;;6.70;2.80;;;;;;;19.94;68.63;99660.69;5103132;28;20431;-59
2023/08/30 09:03:50;;;;;;;3.77;3.07;;;;;;;19.94;68.80;99661.53;5075544;28;20855;-59
2023/08/30 09:06:16;;;;;;;5.73;2.80;;;;;;;19.89;69.20;99669.69;5085957;28;20198;-59
2023/08/30 09:08:41;;;;;;;10.43;2.60;;;;;;;19.83;69.51;99666.41;5087732;28;20177;-58
2023/08/30 09:11:06;;;;;;;4.70;3.23;;;;;;;19.87;69.50;99675.81;5098779;28;20181;-58
2023/08/30 09:13:32;;;;;;;3.57;2.73;;;;;;;19.94;69.13;99661.53;5107662;28;20286;-59
2023/08/30 09:15:58;;;;;;;4.20;2.50;;;;;;;20.01;68.80;99672.19;5093223;28;20178;-58
2023/08/30 09:18:27;;;;;;;6.27;2.90;;;;;;;19.92;69.17;99675.41;5073968;28;20182;-58
2023/08/30 09:20:53;;;;;;;7.40;3.30;;;;;;;19.82;69.18;99676.19;5092891;28;20453;-58
2023/08/30 09:23:20;;;;;;;3.07;2.43;;;;;;;19.82;69.14;99675.41;5104174;27;20424;-59
2023/08/30 09:25:45;;;;;;;4.00;3.03;;;;;;;19.92;68.99;99674.59;5097294;27;20469;-58
2023/08/30 09:28:11;;;;;;;4.17;3.13;;;;;;;19.83;69.41;99665.56;5101367;27;20444;-58
2023/08/30 09:30:36;;;;;;;5.10;2.80;;;;;;;19.82;69.19;99667.59;5092488;28;20186;-58
2023/08/30 09:33:02;;;;;;;4.47;2.67;;;;;;;19.97;68.86;99663.56;5095360;28;20559;-58
2023/08/30 09:35:28;;;;;;;4.47;3.00;;;;;;;19.78;69.26;99663.09;5073623;28;20231;-59
2023/08/30 09:37:53;;;;;;;5.50;2.87;;;;;;;19.75;69.63;99661.88;5098447;28;20436;-59
2023/08/30 09:40:20;;;;;;;5.10;3.50;;;;;;;19.71;69.52;99663.09;5093455;28;20181;-59
2023/08/30 09:42:45;;;;;;;3.93;3.13;;;;;;;19.79;69.27;99659.00;5090613;28;20193;-59
2023/08/30 09:45:21;;;;;;;9.40;3.43;;;;;;;19.92;69.20;99666.00;5089735;28;20459;-59
2023/08/30 09:47:50;;;;;;;4.30;2.87;;;;;;;19.87;68.99;99657.81;5091796;28;20174;-58
2023/08/30 09:50:20;;;;;;;5.60;3.00;;;;;;;19.82;69.36;99646.75;5096678;28;20853;-59
2023/08/30 09:52:49;;;;;;;4.90;3.23;;;;;;;19.94;68.69;99647.19;5106318;28;20427;-59
2023/08/30 09:55:15;;;;;;;7.37;3.30;;;;;;;20.01;68.53;99650.06;5105469;27;21095;-59
2023/08/30 09:57:42;;;;;;;5.37;3.13;;;;;;;19.99;68.67;99646.78;5092294;28;20440;-59
2023/08/30 10:00:08;;;;;;;4.33;2.97;;;;;;;19.99;68.59;99643.94;5071502;28;20420;-59
2023/08/30 10:02:34;;;;;;;4.20;2.87;;;;;;;19.97;68.85;99643.50;5090440;28;20467;-59
2023/08/30 10:04:59;;;;;;;5.30;3.17;;;;;;;20.05;68.69;99648.03;5089673;28;21002;-59
2023/08/30 10:07:25;;;;;;;5.43;3.10;;;;;;;20.05;68.43;99635.72;5077744;27;20180;-60
2023/08/30 10:09:50;;;;;;;4.50;2.90;;;;;;;20.09;68.14;99634.56;5131124;27;20536;-59
2023/08/30 10:12:16;;;;;;;6.60;3.10;;;;;;;19.99;68.28;99634.50;5130930;27;20177;-59
2023/08/30 10:14:42;;;;;;;4.53;3.00;;;;;;;20.00;68.64;99639.84;5130862;27;20177;-59
2023/08/30 10:17:08;;;;;;;5.37;3.00;;;;;;;20.04;68.21;99632.06;5095008;27;20182;-58
2023/08/30 10:19:34;;;;;;;3.50;2.97;;;;;;;20.08;68.46;99630.06;5056012;28;20231;-59
2023/08/30 10:22:08;;;;;;;4.30;2.93;;;;;;;20.13;67.50;99635.38;5072428;28;20467;-59
2023/08/30 10:24:40;;;;;;;4.80;3.70;;;;;;;20.11;67.76;99634.97;5093322;28;20541;-58
2023/08/30 10:27:07;;;;;;;4.13;3.03;;;;;;;20.11;67.78;99625.56;5102527;28;20428;-59
2023/08/30 10:29:33;;;;;;;6.03;3.30;;;;;;;20.13;67.48;99623.09;5092757;28;20462;-58
2023/08/30 10:32:04;;;;;;;4.47;2.70;;;;;;;20.16;67.40;99616.56;5102805;28;20459;-59
2023/08/30 10:34:36;;;;;;;5.40;2.67;;;;;;;20.14;67.40;99619.81;5092558;28;20230;-59
2023/08/30 10:37:03;;;;;;;5.50;2.40;;;;;;;20.20;66.76;99620.22;5110105;28;20506;-58
2023/08/30 10:39:39;;;;;;;3.43;2.70;;;;;;;20.22;66.98;99615.72;5108836;28;20762;-59
2023/08/30 10:42:08;;;;;;;5.27;2.90;;;;;;;20.29;65.92;99609.16;5117190;27;20433;-59
2023/08/30 10:44:33;;;;;;;4.67;2.57;;;;;;;20.29;66.47;99612.88;5129712;27;20541;-58
2023/08/30 10:46:59;;;;;;;4.40;2.70;;;;;;;20.30;66.03;99600.16;5111700;27;20432;-59
2023/08/30 10:49:25;;;;;;;12.60;3.03;;;;;;;20.28;66.67;99598.94;5073592;27;20209;-60
2023/08/30 10:51:57;;;;;;;3.63;2.60;;;;;;;20.26;65.33;99593.63;5108778;28;20201;-58
2023/08/30 10:54:23;;;;;;;3.63;2.37;;;;;;;20.26;66.22;99589.94;5108884;28;20415;-60
2023/08/30 10:56:55;;;;;;;4.77;3.10;;;;;;;20.28;65.76;99593.22;5094069;28;20423;-59
2023/08/30 10:59:21;;;;;;;7.23;3.00;;;;;;;20.28;65.68;99585.44;5080193;28;20416;-58
2023/08/30 11:01:47;;;;;;;6.77;2.77;;;;;;;20.32;65.32;99589.09;5092799;28;20778;-59
2023/08/30 11:04:14;;;;;;;3.10;2.17;;;;;;;20.31;66.03;99583.81;5091458;28;20408;-60
2023/08/30 11:06:40;;;;;;;7.20;2.60;;;;;;;20.34;65.42;99582.97;5098066;28;20446;-59
2023/08/30 11:09:06;;;;;;;5.10;3.27;;;;;;;20.35;65.35;99573.13;5070745;28;20444;-58
2023/08/30 11:11:31;;;;;;;4.20;3.00;;;;;;;20.35;65.47;99573.97;5092175;28;20428;-59
2023/08/30 11:14:09;;;;;;;4.47;2.77;;;;;;;20.34;64.99;99572.31;5108294;28;20186;-58
2023/08/30 11:16:38;;;;;;;4.73;2.73;;;;;;;20.36;64.93;99563.31;5082201;28;20668;-59
2023/08/30 11:19:04;;;;;;;5.70;2.63;;;;;;;20.36;64.98;99566.19;5094002;28;20483;-59
2023/08/30 11:21:34;;;;;;;4.93;2.60;;;;;;;20.53;65.00;99557.53;5103477;27;20551;-58
2023/08/30 11:23:59;;;;;;;5.83;3.00;;;;;;;20.49;64.72;99559.63;5093518;27;20419;-59
2023/08/30 11:26:25;;;;;;;3.67;2.80;;;;;;;20.47;64.21;99553.44;5098988;27;20990;-58
2023/08/30 11:28:52;;;;;;;6.40;2.30;;;;;;;20.45;64.68;99561.66;5089699;28;20763;-58